createdAt,value
2023-02-03T00:01:55.365Z,96551.06
2023-02-03T00:04:21.761Z,96546.44
2023-02-03T00:06:48.133Z,96556.47
2023-02-03T00:09:14.512Z,96554.75
2023-02-03T00:11:40.937Z,96549.66
2023-02-03T00:14:07.303Z,96552.09
2023-02-03T00:16:33.684Z,96553.06
2023-02-03T00:19:00.076Z,96556.72
2023-02-03T00:21:26.501Z,96556.91
2023-02-03T00:23:52.933Z,96549.56
2023-02-03T00:26:19.292Z,96553.97
2023-02-03T00:28:45.667Z,96554.28
2023-02-03T00:31:12.120Z,96544.03
2023-02-03T00:33:38.554Z,96552.38
2023-02-03T00:36:05.121Z,96546.84
2023-02-03T00:38:31.526Z,96543.13
2023-02-03T00:40:57.941Z,96545.84
2023-02-03T00:43:24.331Z,96537.03
2023-02-03T00:45:50.757Z,96546.94
2023-02-03T00:48:18.917Z,96548.03
2023-02-03T00:50:45.272Z,96542.78
2023-02-03T00:53:11.663Z,96544.69
2023-02-03T00:55:38.059Z,96545.59
2023-02-03T00:58:04.449Z,96540.47
2023-02-03T01:00:30.868Z,96542.44
2023-02-03T01:02:57.249Z,96537.06
2023-02-03T01:05:23.610Z,96543.34
2023-02-03T01:07:49.988Z,96538.72
2023-02-03T01:10:16.381Z,96545.06
2023-02-03T01:12:42.749Z,96548.13
2023-02-03T01:15:09.121Z,96545.69
2023-02-03T01:17:35.496Z,96548.03
2023-02-03T01:20:01.876Z,96552.50
2023-02-03T01:22:28.231Z,96550.47
2023-02-03T01:24:54.597Z,96558.47
2023-02-03T01:27:20.970Z,96556.97
2023-02-03T01:29:47.335Z,96562.50
2023-02-03T01:32:13.686Z,96568.28
2023-02-03T01:34:40.048Z,96564.56
2023-02-03T01:37:06.512Z,96576.50
2023-02-03T01:39:32.861Z,96578.78
2023-02-03T01:41:59.299Z,96583.28
2023-02-03T01:44:25.654Z,96578.34
2023-02-03T01:46:52.141Z,96589.63
2023-02-03T01:49:18.517Z,96582.41
2023-02-03T01:51:44.907Z,96586.72
2023-02-03T01:54:11.269Z,96589.47
2023-02-03T01:56:37.645Z,96583.75
2023-02-03T01:59:04.012Z,96586.56
2023-02-03T02:01:30.470Z,96595.41
2023-02-03T02:03:56.853Z,96594.16
2023-02-03T02:06:23.254Z,96581.31
2023-02-03T02:08:49.644Z,96580.41
2023-02-03T02:11:16.018Z,96574.25
2023-02-03T02:13:42.396Z,96572.06
2023-02-03T02:16:08.836Z,96570.66
2023-02-03T02:18:35.234Z,96568.53
2023-02-03T02:21:01.615Z,96577.84
2023-02-03T02:23:28.024Z,96575.16
2023-02-03T02:25:54.391Z,96571.25
2023-02-03T02:28:20.764Z,96579.06
2023-02-03T02:30:47.176Z,96576.28
2023-02-03T02:33:13.609Z,96584.19
2023-02-03T02:35:40.006Z,96581.31
2023-02-03T02:38:06.412Z,96581.31
2023-02-03T02:40:32.811Z,96576.56
2023-02-03T02:42:59.186Z,96577.06
2023-02-03T02:45:25.601Z,96586.94
2023-02-03T02:47:51.979Z,96586.94
2023-02-03T02:50:18.364Z,96578.28
2023-02-03T02:52:44.753Z,96578.88
2023-02-03T02:55:11.198Z,96577.59
2023-02-03T02:57:37.583Z,96565.78
2023-02-03T03:00:03.977Z,96562.25
2023-02-03T03:02:30.341Z,96560.41
2023-02-03T03:04:56.779Z,96559.25
2023-02-03T03:07:23.208Z,96554.00
2023-02-03T03:09:49.602Z,96562.00
2023-02-03T03:12:16.098Z,96550.72
2023-02-03T03:14:42.476Z,96563.88
2023-02-03T03:17:08.839Z,96570.03
2023-02-03T03:19:35.238Z,96567.16
2023-02-03T03:22:01.592Z,96566.75
2023-02-03T03:24:27.983Z,96567.50
2023-02-03T03:26:54.388Z,96564.53
2023-02-03T03:29:20.795Z,96568.44
2023-02-03T03:31:47.229Z,96559.56
2023-02-03T03:34:13.677Z,96562.00
2023-02-03T03:36:40.052Z,96564.84
2023-02-03T03:39:06.434Z,96567.47
2023-02-03T03:41:32.869Z,96558.09
2023-02-03T03:43:59.267Z,96560.31
2023-02-03T03:46:25.698Z,96562.94
2023-02-03T03:48:52.073Z,96567.88
2023-02-03T03:51:18.467Z,96565.72
2023-02-03T03:53:44.932Z,96566.22
2023-02-03T03:56:11.343Z,96563.13
2023-02-03T03:58:37.721Z,96550.09
2023-02-03T04:01:04.227Z,96548.84
2023-02-03T04:03:30.756Z,96562.31
2023-02-03T04:05:57.247Z,96557.53
2023-02-03T04:08:23.699Z,96554.16
2023-02-03T04:10:50.084Z,96546.44
2023-02-03T04:13:16.460Z,96549.22
2023-02-03T04:15:42.842Z,96550.03
2023-02-03T04:18:09.198Z,96536.06
2023-02-03T04:20:35.585Z,96533.34
2023-02-03T04:23:01.900Z,96533.22
2023-02-03T04:25:28.278Z,96534.47
2023-02-03T04:27:54.689Z,96536.63
2023-02-03T04:30:21.124Z,96543.09
2023-02-03T04:32:47.498Z,96535.31
2023-02-03T04:35:13.874Z,96530.19
2023-02-03T04:37:40.250Z,96518.19
2023-02-03T04:40:06.644Z,96509.91
2023-02-03T04:42:33.028Z,96514.41
2023-02-03T04:44:59.405Z,96513.28
2023-02-03T04:47:25.768Z,96509.09
2023-02-03T04:49:52.150Z,96493.63
2023-02-03T04:52:18.506Z,96491.09
2023-02-03T04:54:44.917Z,96487.81
2023-02-03T04:57:11.299Z,96489.50
2023-02-03T04:59:37.678Z,96492.41
2023-02-03T05:02:04.060Z,96485.16
2023-02-03T05:04:30.449Z,96487.94
2023-02-03T05:06:57.765Z,96490.56
2023-02-03T05:09:24.150Z,96502.03
2023-02-03T05:11:50.526Z,96494.97
2023-02-03T05:14:16.896Z,96495.44
2023-02-03T05:16:43.336Z,96501.59
2023-02-03T05:19:09.989Z,96504.84
2023-02-03T05:21:36.512Z,96510.09
2023-02-03T05:24:02.893Z,96505.91
2023-02-03T05:26:29.275Z,96504.22
2023-02-03T05:28:57.482Z,96506.50
2023-02-03T05:31:24.226Z,96498.28
2023-02-03T05:33:50.665Z,96498.50
2023-02-03T05:36:17.101Z,96486.00
2023-02-03T05:38:43.465Z,96480.13
2023-02-03T05:41:09.829Z,96481.84
2023-02-03T05:43:36.201Z,96484.28
2023-02-03T05:46:02.636Z,96486.63
2023-02-03T05:48:29.119Z,96494.03
2023-02-03T05:50:55.476Z,96491.56
2023-02-03T05:53:21.890Z,96506.72
2023-02-03T05:55:48.278Z,96511.97
2023-02-03T05:58:14.657Z,96506.56
2023-02-03T06:00:41.048Z,96507.31
2023-02-03T06:03:07.438Z,96515.97
2023-02-03T06:05:33.877Z,96513.81
2023-02-03T06:08:00.269Z,96521.22
2023-02-03T06:10:26.913Z,96532.03
2023-02-03T06:12:53.461Z,96534.81
2023-02-03T06:15:19.833Z,96533.44
2023-02-03T06:17:46.189Z,96539.00
2023-02-03T06:20:12.581Z,96548.56
2023-02-03T06:22:38.926Z,96551.81
2023-02-03T06:25:05.322Z,96560.94
2023-02-03T06:27:31.700Z,96563.09
2023-02-03T06:29:58.084Z,96562.16
2023-02-03T06:32:24.469Z,96567.25
2023-02-03T06:34:50.831Z,96568.78
2023-02-03T06:37:17.276Z,96562.00
2023-02-03T06:39:43.658Z,96549.66
2023-02-03T06:42:10.043Z,96546.72
2023-02-03T06:44:36.445Z,96545.50
2023-02-03T06:47:02.846Z,96541.03
2023-02-03T06:49:29.227Z,96539.00
2023-02-03T06:51:55.643Z,96547.97
2023-02-03T06:54:22.029Z,96562.63
2023-02-03T06:56:48.647Z,96564.94
2023-02-03T06:59:14.995Z,96571.41
2023-02-03T07:01:41.408Z,96558.00
2023-02-03T07:04:07.819Z,96553.22
2023-02-03T07:06:34.214Z,96552.44
2023-02-03T07:09:01.846Z,96560.16
2023-02-03T07:11:28.472Z,96551.81
2023-02-03T07:13:54.885Z,96541.13
2023-02-03T07:16:21.321Z,96553.94
2023-02-03T07:18:48.519Z,96550.69
2023-02-03T07:21:14.913Z,96533.41
2023-02-03T07:23:41.283Z,96530.16
2023-02-03T07:26:07.738Z,96532.16
2023-02-03T07:28:34.108Z,96526.00
2023-02-03T07:31:00.608Z,96531.53
2023-02-03T07:33:27.141Z,96536.78
2023-02-03T07:35:53.512Z,96533.22
2023-02-03T07:38:19.900Z,96532.47
2023-02-03T07:40:46.307Z,96542.22
2023-02-03T07:43:12.673Z,96548.25
2023-02-03T07:45:39.099Z,96555.63
2023-02-03T07:48:05.493Z,96557.03
2023-02-03T07:50:31.874Z,96561.69
2023-02-03T07:52:58.367Z,96582.19
2023-02-03T07:55:24.746Z,96584.44
2023-02-03T07:57:51.125Z,96590.31
2023-02-03T08:00:17.508Z,96594.66
2023-02-03T08:02:43.888Z,96591.13
2023-02-03T08:05:10.382Z,96578.94
2023-02-03T08:07:36.865Z,96581.56
2023-02-03T08:10:03.250Z,96578.59
2023-02-03T08:12:29.677Z,96577.97
2023-02-03T08:14:56.094Z,96578.75
2023-02-03T08:17:22.500Z,96578.94
2023-02-03T08:19:48.886Z,96576.63
2023-02-03T08:22:15.351Z,96588.03
2023-02-03T08:24:41.725Z,96601.97
2023-02-03T08:27:08.105Z,96610.72
2023-02-03T08:29:34.537Z,96606.59
2023-02-03T08:32:00.949Z,96598.09
2023-02-03T08:34:27.380Z,96597.19
2023-02-03T08:36:53.759Z,96598.56
2023-02-03T08:39:20.329Z,96611.69
2023-02-03T08:41:46.708Z,96623.41
2023-02-03T08:44:13.074Z,96623.25
2023-02-03T08:46:39.519Z,96625.91
2023-02-03T08:49:05.872Z,96610.44
2023-02-03T08:51:32.238Z,96609.09
2023-02-03T08:54:02.918Z,96612.56
2023-02-03T08:56:29.327Z,96622.84
2023-02-03T08:58:56.103Z,96629.06
2023-02-03T09:01:22.598Z,96625.06
2023-02-03T09:03:49.071Z,96630.66
2023-02-03T09:06:15.451Z,96637.25
2023-02-03T09:08:41.828Z,96630.34
2023-02-03T09:11:08.306Z,96632.06
2023-02-03T09:13:34.668Z,96632.25
2023-02-03T09:16:01.057Z,96629.84
2023-02-03T09:18:27.429Z,96627.88
2023-02-03T09:20:53.809Z,96619.84
2023-02-03T09:23:20.301Z,96621.22
2023-02-03T09:25:49.383Z,96618.50
2023-02-03T09:28:15.975Z,96628.72
2023-02-03T09:30:42.421Z,96631.41
2023-02-03T09:33:08.862Z,96624.09
2023-02-03T09:35:35.221Z,96620.72
2023-02-03T09:38:01.663Z,96624.72
2023-02-03T09:40:28.380Z,96619.19
2023-02-03T09:42:54.903Z,96618.81
2023-02-03T09:45:21.285Z,96628.56
2023-02-03T09:47:47.665Z,96636.41
2023-02-03T09:50:14.063Z,96623.31
2023-02-03T09:52:40.461Z,96629.34
2023-02-03T09:55:06.841Z,96625.13
2023-02-03T09:57:33.202Z,96631.41
2023-02-03T09:59:59.568Z,96629.28
2023-02-03T10:02:26.070Z,96623.81
2023-02-03T10:04:52.447Z,96617.91
2023-02-03T10:07:18.845Z,96609.09
2023-02-03T10:09:45.231Z,96611.50
2023-02-03T10:12:11.628Z,96623.25
2023-02-03T10:14:38.044Z,96617.41
2023-02-03T10:17:04.513Z,96618.16
2023-02-03T10:19:30.979Z,96614.75
2023-02-03T10:21:57.368Z,96608.13
2023-02-03T10:24:23.740Z,96604.63
2023-02-03T10:26:50.120Z,96615.66
2023-02-03T10:29:16.478Z,96611.31
2023-02-03T10:31:42.976Z,96607.59
2023-02-03T10:34:09.441Z,96605.28
2023-02-03T10:36:35.806Z,96606.75
2023-02-03T10:39:02.226Z,96602.03
2023-02-03T10:41:28.674Z,96603.28
2023-02-03T10:43:57.323Z,96601.53
2023-02-03T10:46:24.050Z,96592.06
2023-02-03T10:48:50.470Z,96596.59
2023-02-03T10:51:16.922Z,96587.66
2023-02-03T10:53:43.355Z,96585.06
2023-02-03T10:56:09.717Z,96580.13
2023-02-03T10:58:36.115Z,96578.50
2023-02-03T11:01:02.498Z,96573.34
2023-02-03T11:03:28.919Z,96572.09
2023-02-03T11:05:55.336Z,96570.28
2023-02-03T11:08:21.771Z,96560.78
2023-02-03T11:10:48.173Z,96553.88
2023-02-03T11:13:14.576Z,96558.75
2023-02-03T11:15:41.022Z,96562.50
2023-02-03T11:18:07.422Z,96564.03
2023-02-03T11:20:33.847Z,96566.72
2023-02-03T11:23:00.207Z,96571.94
2023-02-03T11:25:26.598Z,96572.84
2023-02-03T11:27:53.029Z,96558.00
2023-02-03T11:30:19.423Z,96562.34
2023-02-03T11:32:45.815Z,96565.75
2023-02-03T11:35:12.182Z,96564.94
2023-02-03T11:37:38.560Z,96551.84
2023-02-03T11:40:04.976Z,96571.44
2023-02-03T11:42:31.352Z,96561.53
2023-02-03T11:44:57.812Z,96562.06
2023-02-03T11:47:24.199Z,96551.44
2023-02-03T11:49:50.576Z,96546.06
2023-02-03T11:52:16.969Z,96556.38
2023-02-03T11:54:43.340Z,96557.16
2023-02-03T11:57:09.740Z,96545.16
2023-02-03T11:59:36.148Z,96538.09
2023-02-03T12:02:02.540Z,96542.56
2023-02-03T12:04:28.955Z,96541.03
2023-02-03T12:06:55.340Z,96546.03
2023-02-03T12:09:21.706Z,96535.00
2023-02-03T12:11:48.230Z,96534.31
2023-02-03T12:14:14.577Z,96523.91
2023-02-03T12:16:40.996Z,96522.81
2023-02-03T12:19:07.409Z,96513.81
2023-02-03T12:21:33.858Z,96519.19
2023-02-03T12:24:00.220Z,96522.00
2023-02-03T12:26:26.589Z,96508.31
2023-02-03T12:28:52.953Z,96515.25
2023-02-03T12:31:19.446Z,96507.28
2023-02-03T12:33:45.908Z,96507.44
2023-02-03T12:36:12.298Z,96505.59
2023-02-03T12:38:38.685Z,96497.63
2023-02-03T12:41:06.103Z,96500.44
2023-02-03T12:43:32.477Z,96499.81
2023-02-03T12:45:58.911Z,96508.72
2023-02-03T12:48:25.344Z,96498.00
2023-02-03T12:50:51.701Z,96487.00
2023-02-03T12:53:18.068Z,96481.13
2023-02-03T12:55:44.457Z,96483.44
2023-02-03T12:58:10.892Z,96477.34
2023-02-03T13:00:37.283Z,96483.22
2023-02-03T13:03:03.709Z,96478.56
2023-02-03T13:05:30.073Z,96475.25
2023-02-03T13:07:56.433Z,96473.22
2023-02-03T13:10:22.805Z,96466.09
2023-02-03T13:12:49.190Z,96473.56
2023-02-03T13:15:15.555Z,96464.00
2023-02-03T13:17:41.929Z,96461.19
2023-02-03T13:20:08.280Z,96455.22
2023-02-03T13:22:34.653Z,96462.19
2023-02-03T13:25:01.030Z,96454.63
2023-02-03T13:27:27.426Z,96452.09
2023-02-03T13:29:53.840Z,96447.66
2023-02-03T13:32:20.246Z,96441.44
2023-02-03T13:34:46.644Z,96440.94
2023-02-03T13:37:13.005Z,96437.38
2023-02-03T13:39:39.444Z,96441.63
2023-02-03T13:42:05.797Z,96448.75
2023-02-03T13:44:32.168Z,96457.00
2023-02-03T13:46:58.567Z,96456.00
2023-02-03T13:49:24.934Z,96440.28
2023-02-03T13:51:51.832Z,96441.31
2023-02-03T13:54:18.222Z,96427.47
2023-02-03T13:56:44.593Z,96429.53
2023-02-03T13:59:10.985Z,96435.28
2023-02-03T14:01:37.359Z,96435.34
2023-02-03T14:04:03.864Z,96439.13
2023-02-03T14:06:30.307Z,96428.38
2023-02-03T14:08:56.688Z,96440.38
2023-02-03T14:11:23.068Z,96456.81
2023-02-03T14:13:49.465Z,96455.34
2023-02-03T14:16:15.880Z,96456.44
2023-02-03T14:18:42.307Z,96452.84
2023-02-03T14:21:08.710Z,96454.75
2023-02-03T14:23:35.078Z,96443.59
2023-02-03T14:26:01.478Z,96438.69
2023-02-03T14:28:27.882Z,96445.84
2023-02-03T14:30:54.401Z,96448.41
2023-02-03T14:33:20.884Z,96446.72
2023-02-03T14:35:47.262Z,96442.91
2023-02-03T14:38:13.671Z,96451.13
2023-02-03T14:40:40.041Z,96440.78
2023-02-03T14:43:11.082Z,96440.75
2023-02-03T14:45:38.396Z,96434.66
2023-02-03T14:48:04.778Z,96427.94
2023-02-03T14:50:31.166Z,96424.38
2023-02-03T14:52:57.544Z,96421.69
2023-02-03T14:55:23.943Z,96412.63
2023-02-03T14:57:50.315Z,96416.44
2023-02-03T15:00:16.761Z,96419.59
2023-02-03T15:02:43.139Z,96419.84
2023-02-03T15:05:09.625Z,96408.13
2023-02-03T15:07:36.040Z,96409.16
2023-02-03T15:10:02.453Z,96411.84
2023-02-03T15:12:28.856Z,96412.53
2023-02-03T15:14:55.263Z,96408.31
2023-02-03T15:17:21.636Z,96396.97
2023-02-03T15:19:48.046Z,96389.44
2023-02-03T15:22:14.424Z,96385.09
2023-02-03T15:24:40.812Z,96391.16
2023-02-03T15:27:07.196Z,96398.09
2023-02-03T15:29:33.561Z,96396.72
2023-02-03T15:31:59.955Z,96386.81
2023-02-03T15:34:26.347Z,96388.00
2023-02-03T15:36:52.786Z,96397.75
2023-02-03T15:39:19.315Z,96396.63
2023-02-03T15:41:45.714Z,96406.78
2023-02-03T15:44:12.133Z,96403.94
2023-02-03T15:46:38.626Z,96407.09
2023-02-03T15:49:05.011Z,96404.38
2023-02-03T15:51:31.370Z,96398.00
2023-02-03T15:53:57.757Z,96398.06
2023-02-03T15:56:24.160Z,96401.81
2023-02-03T15:58:50.533Z,96409.59
2023-02-03T16:01:18.168Z,96393.19
2023-02-03T16:03:44.684Z,96405.31
2023-02-03T16:06:11.070Z,96421.22
2023-02-03T16:08:37.468Z,96421.97
2023-02-03T16:11:03.853Z,96425.81
2023-02-03T16:13:30.217Z,96431.19
2023-02-03T16:15:56.715Z,96434.03
2023-02-03T16:18:23.124Z,96423.19
2023-02-03T16:20:49.536Z,96414.72
2023-02-03T16:23:15.929Z,96422.56
2023-02-03T16:25:42.312Z,96423.19
2023-02-03T16:28:08.763Z,96437.44
2023-02-03T16:30:35.198Z,96441.53
2023-02-03T16:33:01.607Z,96454.72
2023-02-03T16:35:28.581Z,96447.53
2023-02-03T16:37:55.309Z,96454.06
2023-02-03T16:40:21.700Z,96447.38
2023-02-03T16:42:48.141Z,96453.06
2023-02-03T16:45:17.262Z,96451.47
2023-02-03T16:47:43.884Z,96446.94
2023-02-03T16:50:10.283Z,96448.13
2023-02-03T16:52:36.669Z,96451.72
2023-02-03T16:55:03.046Z,96458.00
2023-02-03T16:57:29.420Z,96454.09
2023-02-03T16:59:55.807Z,96456.03
2023-02-03T17:02:22.193Z,96463.69
2023-02-03T17:04:48.602Z,96465.38
2023-02-03T17:07:15.040Z,96465.13
2023-02-03T17:09:41.394Z,96466.13
2023-02-03T17:12:07.757Z,96471.81
2023-02-03T17:14:34.158Z,96481.94
2023-02-03T17:17:00.542Z,96481.50
2023-02-03T17:19:26.926Z,96469.28
2023-02-03T17:21:53.315Z,96468.06
2023-02-03T17:24:19.777Z,96475.31
2023-02-03T17:26:46.137Z,96479.47
2023-02-03T17:29:12.502Z,96486.66
2023-02-03T17:31:38.904Z,96488.19
2023-02-03T17:34:05.284Z,96488.44
2023-02-03T17:36:31.695Z,96478.13
2023-02-03T17:55:22.434Z,96490.78
2023-02-03T17:57:48.832Z,96483.63
2023-02-03T18:00:15.227Z,96492.81
2023-02-03T18:02:41.647Z,96499.53
2023-02-03T18:05:08.049Z,96498.13
2023-02-03T18:07:34.408Z,96485.88
2023-02-03T18:10:00.782Z,96486.09
2023-02-03T18:12:27.188Z,96488.06
2023-02-03T18:14:53.573Z,96485.22
2023-02-03T18:17:19.931Z,96489.81
2023-02-03T18:19:49.275Z,96483.66
2023-02-03T18:22:21.339Z,96494.44
2023-02-03T18:24:47.771Z,96488.75
2023-02-03T18:27:14.218Z,96489.84
2023-02-03T18:29:40.565Z,96489.38
2023-02-03T18:32:06.954Z,96500.03
2023-02-03T18:34:33.301Z,96496.53
2023-02-03T18:36:59.677Z,96496.63
2023-02-03T18:39:26.062Z,96498.41
2023-02-03T18:41:52.426Z,96495.00
2023-02-03T18:44:18.844Z,96487.19
2023-02-03T18:46:45.243Z,96479.84
2023-02-03T18:49:11.666Z,96466.66
2023-02-03T18:51:38.047Z,96463.69
2023-02-03T18:54:04.412Z,96457.75
2023-02-03T18:56:30.903Z,96473.81
2023-02-03T18:58:57.318Z,96479.06
2023-02-03T19:01:23.744Z,96482.72
2023-02-03T19:03:50.153Z,96489.59
2023-02-03T19:06:16.520Z,96483.25
2023-02-03T19:08:42.934Z,96485.19
2023-02-03T19:11:09.300Z,96481.44
2023-02-03T19:13:35.750Z,96482.75
2023-02-03T19:16:02.232Z,96484.53
2023-02-03T19:18:28.795Z,96485.19
2023-02-03T19:20:55.158Z,96493.97
2023-02-03T19:23:23.223Z,96493.28
2023-02-03T19:25:50.318Z,96483.84
2023-02-03T19:28:20.209Z,96475.72
2023-02-03T19:31:00.027Z,96481.44
2023-02-03T19:33:32.258Z,96469.81
2023-02-03T19:35:58.643Z,96473.94
2023-02-03T19:38:25.011Z,96471.31
2023-02-03T19:40:51.357Z,96467.13
2023-02-03T19:43:17.771Z,96472.94
2023-02-03T19:45:44.209Z,96474.47
2023-02-03T19:48:10.575Z,96474.34
2023-02-03T19:50:37.009Z,96482.66
2023-02-03T19:53:03.401Z,96479.69
2023-02-03T19:55:29.877Z,96479.13
2023-02-03T19:57:56.258Z,96492.53
2023-02-03T20:00:22.639Z,96483.34
2023-02-03T20:02:49.079Z,96485.53
2023-02-03T20:05:15.511Z,96481.56
2023-02-03T20:07:41.976Z,96481.72
2023-02-03T20:10:08.357Z,96481.59
2023-02-03T20:12:34.825Z,96484.81
2023-02-03T20:15:01.252Z,96492.50
2023-02-03T20:17:27.608Z,96483.78
2023-02-03T20:19:53.982Z,96480.84
2023-02-03T20:22:20.388Z,96479.84
2023-02-03T20:24:46.755Z,96484.56
2023-02-03T20:27:13.125Z,96482.69
2023-02-03T20:29:39.507Z,96480.09
2023-02-03T20:32:06.017Z,96476.63
2023-02-03T20:34:32.531Z,96476.53
2023-02-03T20:36:58.946Z,96470.19
2023-02-03T20:39:25.442Z,96471.47
2023-02-03T20:41:51.830Z,96469.50
2023-02-03T20:44:18.293Z,96475.44
2023-02-03T20:46:44.673Z,96475.69
2023-02-03T20:49:11.069Z,96489.63
2023-02-03T20:51:37.451Z,96482.06
2023-02-03T20:54:03.832Z,96486.56
2023-02-03T20:56:30.210Z,96497.66
2023-02-03T20:58:56.703Z,96495.88
2023-02-03T21:01:23.122Z,96493.81
2023-02-03T21:03:49.587Z,96495.34
2023-02-03T21:06:15.992Z,96500.06
2023-02-03T21:08:42.347Z,96497.38
2023-02-03T21:11:08.806Z,96507.03
2023-02-03T21:13:35.211Z,96505.56
2023-02-03T21:16:01.653Z,96501.44
2023-02-03T21:18:29.552Z,96501.59
2023-02-03T21:20:55.970Z,96499.78
2023-02-03T21:23:22.361Z,96505.09
2023-02-03T21:25:48.823Z,96495.72
2023-02-03T21:28:15.328Z,96502.63
2023-02-03T21:30:41.752Z,96496.28
2023-02-03T21:33:08.166Z,96487.00
2023-02-03T21:35:34.531Z,96487.56
2023-02-03T21:38:00.896Z,96484.50
2023-02-03T21:40:27.317Z,96490.00
2023-02-03T21:42:53.672Z,96491.50
2023-02-03T21:45:20.139Z,96487.53
2023-02-03T21:47:46.494Z,96490.34
2023-02-03T21:50:12.852Z,96491.44
2023-02-03T21:52:39.229Z,96491.03
2023-02-03T21:55:05.609Z,96491.69
2023-02-03T21:57:32.045Z,96490.59
2023-02-03T21:59:58.401Z,96501.56
2023-02-03T22:02:24.795Z,96507.47
2023-02-03T22:04:51.198Z,96513.06
2023-02-03T22:07:17.554Z,96509.94
2023-02-03T22:09:43.926Z,96500.16
2023-02-03T22:12:10.302Z,96506.63
2023-02-03T22:14:36.696Z,96501.03
2023-02-03T22:17:03.054Z,96505.31
2023-02-03T22:19:29.496Z,96507.19
2023-02-03T22:21:55.845Z,96499.75
2023-02-03T22:24:22.231Z,96496.50
2023-02-03T22:26:48.637Z,96503.09
2023-02-03T22:29:15.001Z,96497.59
2023-02-03T22:31:41.471Z,96506.19
2023-02-03T22:34:07.907Z,96503.69
2023-02-03T22:36:34.272Z,96498.03
2023-02-03T22:39:00.641Z,96487.97
2023-02-03T22:41:27.020Z,96502.72
2023-02-03T22:43:53.382Z,96488.38
2023-02-03T22:46:19.777Z,96491.75
2023-02-03T22:48:46.168Z,96491.25
2023-02-03T22:51:12.516Z,96487.78
2023-02-03T22:53:38.875Z,96500.41
2023-02-03T22:56:05.260Z,96501.50
2023-02-03T22:58:31.651Z,96505.22
2023-02-03T23:00:58.041Z,96515.56
2023-02-03T23:03:24.455Z,96512.94
2023-02-03T23:05:50.844Z,96520.13
2023-02-03T23:08:17.206Z,96522.38
2023-02-03T23:10:43.644Z,96521.91
2023-02-03T23:13:10.008Z,96515.75
2023-02-03T23:15:36.401Z,96522.56
2023-02-03T23:18:02.853Z,96524.94
2023-02-03T23:20:29.604Z,96519.84
2023-02-03T23:22:56.231Z,96514.59
2023-02-03T23:25:22.610Z,96515.84
2023-02-03T23:27:49.006Z,96523.47
2023-02-03T23:30:15.423Z,96525.50
2023-02-03T23:32:41.799Z,96520.06
2023-02-03T23:35:08.154Z,96530.81
2023-02-03T23:37:34.580Z,96528.53
2023-02-03T23:40:00.965Z,96535.78
2023-02-03T23:42:27.337Z,96531.47
2023-02-03T23:44:53.749Z,96533.78
2023-02-03T23:47:20.130Z,96532.88
2023-02-03T23:49:46.515Z,96536.41
2023-02-03T23:52:12.873Z,96541.41
2023-02-03T23:54:39.250Z,96536.03
2023-02-03T23:57:05.613Z,96523.19
2023-02-03T23:59:31.971Z,96525.25
